sensor_id;sensor_type;location;lat;lon;timestamp;P1;durP1;ratioP1;P2;durP2;ratioP2
86116;SDS011;76770;0.000;0.000;2024-03-02T00:02:14;1.75;;;1.20;;
86116;SDS011;76770;0.000;0.000;2024-03-02T00:04:40;1.77;;;1.27;;
86116;SDS011;76770;0.000;0.000;2024-03-02T00:07:08;1.90;;;1.20;;
86116;SDS011;76770;0.000;0.000;2024-03-02T00:09:34;2.63;;;1.30;;
86116;SDS011;76770;0.000;0.000;2024-03-02T00:12:01;1.70;;;1.05;;
86116;SDS011;76770;0.000;0.000;2024-03-02T00:14:30;2.40;;;1.40;;
86116;SDS011;76770;0.000;0.000;2024-03-02T00:16:57;2.53;;;1.40;;
86116;SDS011;76770;0.000;0.000;2024-03-02T00:19:23;2.20;;;1.20;;
86116;SDS011;76770;0.000;0.000;2024-03-02T00:21:49;1.83;;;1.15;;
86116;SDS011;76770;0.000;0.000;2024-03-02T00:24:21;2.03;;;1.20;;
86116;SDS011;76770;0.000;0.000;2024-03-02T00:26:47;2.30;;;1.30;;
86116;SDS011;76770;0.000;0.000;2024-03-02T00:29:15;1.77;;;1.10;;
86116;SDS011;76770;0.000;0.000;2024-03-02T00:31:45;1.93;;;1.17;;
86116;SDS011;76770;0.000;0.000;2024-03-02T00:34:11;1.90;;;1.20;;
86116;SDS011;76770;0.000;0.000;2024-03-02T00:36:41;1.95;;;1.20;;
86116;SDS011;76770;0.000;0.000;2024-03-02T00:39:07;1.67;;;1.10;;
86116;SDS011;76770;0.000;0.000;2024-03-02T00:41:33;2.03;;;1.30;;
86116;SDS011;76770;0.000;0.000;2024-03-02T00:46:33;2.25;;;1.20;;
86116;SDS011;76770;0.000;0.000;2024-03-02T00:49:00;2.10;;;1.30;;
86116;SDS011;76770;0.000;0.000;2024-03-02T00:51:27;1.70;;;1.17;;
86116;SDS011;76770;0.000;0.000;2024-03-02T00:53:54;2.00;;;1.30;;
86116;SDS011;76770;0.000;0.000;2024-03-02T00:56:21;1.83;;;1.10;;
86116;SDS011;76770;0.000;0.000;2024-03-02T00:58:48;1.98;;;1.10;;
86116;SDS011;76770;0.000;0.000;2024-03-02T01:01:14;1.88;;;1.20;;
86116;SDS011;76770;0.000;0.000;2024-03-02T01:03:41;1.75;;;1.10;;
86116;SDS011;76770;0.000;0.000;2024-03-02T01:06:07;1.55;;;1.08;;
86116;SDS011;76770;0.000;0.000;2024-03-02T01:08:34;2.10;;;1.20;;
86116;SDS011;76770;0.000;0.000;2024-03-02T01:11:00;1.70;;;1.10;;
86116;SDS011;76770;0.000;0.000;2024-03-02T01:13:26;2.05;;;1.23;;
86116;SDS011;76770;0.000;0.000;2024-03-02T01:15:52;2.08;;;1.20;;
86116;SDS011;76770;0.000;0.000;2024-03-02T01:18:18;2.10;;;1.17;;
86116;SDS011;76770;0.000;0.000;2024-03-02T01:20:44;2.40;;;1.10;;
86116;SDS011;76770;0.000;0.000;2024-03-02T01:23:10;1.58;;;1.00;;
86116;SDS011;76770;0.000;0.000;2024-03-02T01:25:36;1.70;;;1.05;;
86116;SDS011;76770;0.000;0.000;2024-03-02T01:28:02;1.90;;;1.10;;
86116;SDS011;76770;0.000;0.000;2024-03-02T01:30:29;1.88;;;1.08;;
86116;SDS011;76770;0.000;0.000;2024-03-02T01:32:54;1.90;;;1.00;;
86116;SDS011;76770;0.000;0.000;2024-03-02T01:35:20;1.83;;;1.15;;
86116;SDS011;76770;0.000;0.000;2024-03-02T01:37:46;1.75;;;1.08;;
86116;SDS011;76770;0.000;0.000;2024-03-02T01:40:12;1.92;;;1.20;;
86116;SDS011;76770;0.000;0.000;2024-03-02T01:42:39;2.30;;;1.10;;
86116;SDS011;76770;0.000;0.000;2024-03-02T01:45:05;2.08;;;1.10;;
86116;SDS011;76770;0.000;0.000;2024-03-02T01:47:31;2.13;;;1.20;;
86116;SDS011;76770;0.000;0.000;2024-03-02T01:49:57;1.80;;;1.10;;
86116;SDS011;76770;0.000;0.000;2024-03-02T01:52:24;1.75;;;1.00;;
86116;SDS011;76770;0.000;0.000;2024-03-02T01:54:50;1.70;;;1.05;;
86116;SDS011;76770;0.000;0.000;2024-03-02T01:57:16;2.17;;;1.10;;
86116;SDS011;76770;0.000;0.000;2024-03-02T01:59:42;2.13;;;1.10;;
86116;SDS011;76770;0.000;0.000;2024-03-02T02:02:08;1.77;;;1.02;;
86116;SDS011;76770;0.000;0.000;2024-03-02T02:04:34;2.42;;;1.10;;
86116;SDS011;76770;0.000;0.000;2024-03-02T02:07:00;1.88;;;1.08;;
86116;SDS011;76770;0.000;0.000;2024-03-02T02:09:26;1.83;;;1.00;;
86116;SDS011;76770;0.000;0.000;2024-03-02T02:11:52;2.00;;;1.10;;
86116;SDS011;76770;0.000;0.000;2024-03-02T02:14:18;2.25;;;1.20;;
86116;SDS011;76770;0.000;0.000;2024-03-02T02:16:44;2.10;;;1.07;;
86116;SDS011;76770;0.000;0.000;2024-03-02T02:19:10;1.40;;;0.93;;
86116;SDS011;76770;0.000;0.000;2024-03-02T02:21:36;1.77;;;1.05;;
86116;SDS011;76770;0.000;0.000;2024-03-02T02:24:02;1.67;;;1.00;;
86116;SDS011;76770;0.000;0.000;2024-03-02T02:26:29;2.10;;;1.10;;
86116;SDS011;76770;0.000;0.000;2024-03-02T02:28:55;2.15;;;1.17;;
86116;SDS011;76770;0.000;0.000;2024-03-02T02:31:21;2.70;;;1.23;;
86116;SDS011;76770;0.000;0.000;2024-03-02T02:33:47;1.40;;;0.90;;
86116;SDS011;76770;0.000;0.000;2024-03-02T02:36:13;1.98;;;1.13;;
86116;SDS011;76770;0.000;0.000;2024-03-02T02:38:40;2.17;;;1.10;;
86116;SDS011;76770;0.000;0.000;2024-03-02T02:41:07;1.55;;;1.08;;
86116;SDS011;76770;0.000;0.000;2024-03-02T02:43:33;2.00;;;1.08;;
86116;SDS011;76770;0.000;0.000;2024-03-02T02:45:59;1.77;;;1.05;;
86116;SDS011;76770;0.000;0.000;2024-03-02T02:48:25;1.70;;;1.02;;
86116;SDS011;76770;0.000;0.000;2024-03-02T02:50:51;1.83;;;1.08;;
86116;SDS011;76770;0.000;0.000;2024-03-02T02:53:17;1.88;;;0.95;;
86116;SDS011;76770;0.000;0.000;2024-03-02T02:55:43;2.83;;;1.20;;
86116;SDS011;76770;0.000;0.000;2024-03-02T02:58:09;1.70;;;1.00;;
86116;SDS011;76770;0.000;0.000;2024-03-02T03:00:35;1.92;;;1.05;;
86116;SDS011;76770;0.000;0.000;2024-03-02T03:03:01;2.10;;;1.00;;
86116;SDS011;76770;0.000;0.000;2024-03-02T03:05:28;1.88;;;1.00;;
86116;SDS011;76770;0.000;0.000;2024-03-02T03:07:54;1.95;;;0.95;;
86116;SDS011;76770;0.000;0.000;2024-03-02T03:10:20;1.70;;;1.00;;
86116;SDS011;76770;0.000;0.000;2024-03-02T03:12:48;1.52;;;1.02;;
86116;SDS011;76770;0.000;0.000;2024-03-02T03:15:14;2.17;;;1.00;;
86116;SDS011;76770;0.000;0.000;2024-03-02T03:17:41;2.13;;;1.00;;
86116;SDS011;76770;0.000;0.000;2024-03-02T03:20:07;2.17;;;1.10;;
86116;SDS011;76770;0.000;0.000;2024-03-02T03:22:36;2.47;;;1.10;;
86116;SDS011;76770;0.000;0.000;2024-03-02T03:25:02;1.85;;;1.00;;
86116;SDS011;76770;0.000;0.000;2024-03-02T03:27:28;2.42;;;1.05;;
86116;SDS011;76770;0.000;0.000;2024-03-02T03:29:54;2.33;;;1.00;;
86116;SDS011;76770;0.000;0.000;2024-03-02T03:32:21;2.13;;;1.00;;
86116;SDS011;76770;0.000;0.000;2024-03-02T03:34:47;2.13;;;1.05;;
86116;SDS011;76770;0.000;0.000;2024-03-02T03:37:13;1.70;;;1.00;;
86116;SDS011;76770;0.000;0.000;2024-03-02T03:39:40;2.10;;;1.10;;
86116;SDS011;76770;0.000;0.000;2024-03-02T03:42:06;2.10;;;1.10;;
86116;SDS011;76770;0.000;0.000;2024-03-02T03:44:32;1.65;;;1.00;;
86116;SDS011;76770;0.000;0.000;2024-03-02T03:46:59;1.83;;;1.02;;
86116;SDS011;76770;0.000;0.000;2024-03-02T03:49:27;1.70;;;1.00;;
86116;SDS011;76770;0.000;0.000;2024-03-02T03:51:53;1.90;;;1.00;;
86116;SDS011;76770;0.000;0.000;2024-03-02T03:54:19;1.42;;;0.80;;
86116;SDS011;76770;0.000;0.000;2024-03-02T03:56:45;2.38;;;1.02;;
86116;SDS011;76770;0.000;0.000;2024-03-02T03:59:11;1.77;;;1.00;;
86116;SDS011;76770;0.000;0.000;2024-03-02T04:01:37;1.77;;;1.00;;
86116;SDS011;76770;0.000;0.000;2024-03-02T04:04:03;2.00;;;1.00;;
86116;SDS011;76770;0.000;0.000;2024-03-02T04:06:29;1.90;;;1.00;;
86116;SDS011;76770;0.000;0.000;2024-03-02T04:08:55;1.77;;;0.80;;
86116;SDS011;76770;0.000;0.000;2024-03-02T04:11:21;1.80;;;0.95;;
86116;SDS011;76770;0.000;0.000;2024-03-02T04:13:47;1.80;;;0.93;;
86116;SDS011;76770;0.000;0.000;2024-03-02T04:16:13;2.47;;;1.00;;
86116;SDS011;76770;0.000;0.000;2024-03-02T04:18:39;1.52;;;0.90;;
86116;SDS011;76770;0.000;0.000;2024-03-02T04:21:06;2.28;;;1.10;;
86116;SDS011;76770;0.000;0.000;2024-03-02T04:23:32;2.53;;;1.10;;
86116;SDS011;76770;0.000;0.000;2024-03-02T04:25:58;1.90;;;0.90;;
86116;SDS011;76770;0.000;0.000;2024-03-02T04:28:24;1.52;;;0.85;;
86116;SDS011;76770;0.000;0.000;2024-03-02T04:30:50;2.05;;;1.00;;
86116;SDS011;76770;0.000;0.000;2024-03-02T04:33:16;2.42;;;1.00;;
86116;SDS011;76770;0.000;0.000;2024-03-02T04:35:42;1.42;;;0.80;;
86116;SDS011;76770;0.000;0.000;2024-03-02T04:38:08;1.60;;;0.90;;
86116;SDS011;76770;0.000;0.000;2024-03-02T04:40:34;1.90;;;1.00;;
86116;SDS011;76770;0.000;0.000;2024-03-02T04:43:00;2.28;;;0.93;;
86116;SDS011;76770;0.000;0.000;2024-03-02T04:45:26;2.00;;;0.90;;
86116;SDS011;76770;0.000;0.000;2024-03-02T04:47:52;1.60;;;0.90;;
86116;SDS011;76770;0.000;0.000;2024-03-02T04:50:18;1.92;;;0.98;;
86116;SDS011;76770;0.000;0.000;2024-03-02T04:52:44;2.03;;;1.00;;
86116;SDS011;76770;0.000;0.000;2024-03-02T04:55:10;1.85;;;1.08;;
86116;SDS011;76770;0.000;0.000;2024-03-02T04:57:42;2.58;;;1.13;;
86116;SDS011;76770;0.000;0.000;2024-03-02T05:00:08;2.15;;;1.20;;
86116;SDS011;76770;0.000;0.000;2024-03-02T05:02:34;2.30;;;1.20;;
86116;SDS011;76770;0.000;0.000;2024-03-02T05:05:00;3.78;;;1.30;;
86116;SDS011;76770;0.000;0.000;2024-03-02T05:07:27;5.37;;;1.87;;
86116;SDS011;76770;0.000;0.000;2024-03-02T05:09:53;3.92;;;1.30;;
86116;SDS011;76770;0.000;0.000;2024-03-02T05:12:19;2.75;;;1.25;;
86116;SDS011;76770;0.000;0.000;2024-03-02T05:14:48;3.00;;;1.27;;
86116;SDS011;76770;0.000;0.000;2024-03-02T05:17:14;2.70;;;1.10;;
86116;SDS011;76770;0.000;0.000;2024-03-02T05:19:40;2.65;;;1.00;;
86116;SDS011;76770;0.000;0.000;2024-03-02T05:22:06;4.65;;;1.77;;
86116;SDS011;76770;0.000;0.000;2024-03-02T05:24:32;4.93;;;1.77;;
86116;SDS011;76770;0.000;0.000;2024-03-02T05:26:59;4.68;;;1.60;;
86116;SDS011;76770;0.000;0.000;2024-03-02T05:29:24;4.47;;;1.60;;
86116;SDS011;76770;0.000;0.000;2024-03-02T05:31:50;4.40;;;1.70;;
86116;SDS011;76770;0.000;0.000;2024-03-02T05:34:16;4.80;;;1.77;;
86116;SDS011;76770;0.000;0.000;2024-03-02T05:36:43;9.27;;;2.20;;
86116;SDS011;76770;0.000;0.000;2024-03-02T05:39:09;14.77;;;4.53;;
86116;SDS011;76770;0.000;0.000;2024-03-02T05:41:35;14.80;;;4.25;;
86116;SDS011;76770;0.000;0.000;2024-03-02T05:44:03;10.32;;;3.60;;
86116;SDS011;76770;0.000;0.000;2024-03-02T05:46:29;11.00;;;3.40;;
86116;SDS011;76770;0.000;0.000;2024-03-02T05:48:55;10.57;;;3.35;;
86116;SDS011;76770;0.000;0.000;2024-03-02T05:51:21;7.30;;;2.93;;
86116;SDS011;76770;0.000;0.000;2024-03-02T05:53:47;10.13;;;3.63;;
86116;SDS011;76770;0.000;0.000;2024-03-02T05:56:13;10.73;;;3.65;;
86116;SDS011;76770;0.000;0.000;2024-03-02T05:58:39;12.53;;;4.60;;
86116;SDS011;76770;0.000;0.000;2024-03-02T06:01:32;10.02;;;3.88;;
86116;SDS011;76770;0.000;0.000;2024-03-02T06:03:58;12.90;;;5.30;;
86116;SDS011;76770;0.000;0.000;2024-03-02T06:06:25;11.20;;;4.20;;
86116;SDS011;76770;0.000;0.000;2024-03-02T06:08:51;18.00;;;6.80;;
86116;SDS011;76770;0.000;0.000;2024-03-02T06:11:19;15.18;;;5.90;;
86116;SDS011;76770;0.000;0.000;2024-03-02T06:13:45;14.65;;;5.45;;
86116;SDS011;76770;0.000;0.000;2024-03-02T06:16:11;13.43;;;5.57;;
86116;SDS011;76770;0.000;0.000;2024-03-02T06:18:37;12.43;;;5.07;;
86116;SDS011;76770;0.000;0.000;2024-03-02T06:21:03;12.13;;;5.18;;
86116;SDS011;76770;0.000;0.000;2024-03-02T06:23:29;12.02;;;5.35;;
86116;SDS011;76770;0.000;0.000;2024-03-02T06:25:55;18.73;;;6.90;;
86116;SDS011;76770;0.000;0.000;2024-03-02T06:28:21;20.97;;;7.37;;
86116;SDS011;76770;0.000;0.000;2024-03-02T06:30:47;20.52;;;7.38;;
86116;SDS011;76770;0.000;0.000;2024-03-02T06:33:13;21.48;;;8.07;;
86116;SDS011;76770;0.000;0.000;2024-03-02T06:35:39;19.07;;;7.20;;
86116;SDS011;76770;0.000;0.000;2024-03-02T06:38:06;21.65;;;7.65;;
86116;SDS011;76770;0.000;0.000;2024-03-02T06:40:32;19.42;;;7.38;;
86116;SDS011;76770;0.000;0.000;2024-03-02T06:42:59;17.95;;;6.82;;
86116;SDS011;76770;0.000;0.000;2024-03-02T06:45:25;14.82;;;6.45;;
86116;SDS011;76770;0.000;0.000;2024-03-02T06:47:51;16.73;;;7.20;;
86116;SDS011;76770;0.000;0.000;2024-03-02T06:50:17;17.75;;;7.53;;
86116;SDS011;76770;0.000;0.000;2024-03-02T06:52:43;23.98;;;8.30;;
86116;SDS011;76770;0.000;0.000;2024-03-02T06:55:09;21.83;;;7.97;;
86116;SDS011;76770;0.000;0.000;2024-03-02T06:57:35;26.38;;;8.38;;
86116;SDS011;76770;0.000;0.000;2024-03-02T07:00:00;22.02;;;7.38;;
86116;SDS011;76770;0.000;0.000;2024-03-02T07:02:30;17.20;;;6.97;;
86116;SDS011;76770;0.000;0.000;2024-03-02T07:04:56;16.77;;;7.22;;
86116;SDS011;76770;0.000;0.000;2024-03-02T07:07:22;15.05;;;6.70;;
86116;SDS011;76770;0.000;0.000;2024-03-02T07:09:47;15.38;;;6.88;;
86116;SDS011;76770;0.000;0.000;2024-03-02T07:12:14;18.33;;;7.68;;
86116;SDS011;76770;0.000;0.000;2024-03-02T07:14:40;21.05;;;8.07;;
86116;SDS011;76770;0.000;0.000;2024-03-02T07:17:24;19.00;;;8.10;;
86116;SDS011;76770;0.000;0.000;2024-03-02T07:19:50;18.65;;;7.43;;
86116;SDS011;76770;0.000;0.000;2024-03-02T07:22:16;16.20;;;7.30;;
86116;SDS011;76770;0.000;0.000;2024-03-02T07:24:43;15.20;;;6.93;;
86116;SDS011;76770;0.000;0.000;2024-03-02T07:27:11;15.98;;;6.97;;
86116;SDS011;76770;0.000;0.000;2024-03-02T07:29:37;14.73;;;6.77;;
86116;SDS011;76770;0.000;0.000;2024-03-02T07:32:03;12.80;;;6.33;;
86116;SDS011;76770;0.000;0.000;2024-03-02T07:34:30;13.60;;;6.50;;
86116;SDS011;76770;0.000;0.000;2024-03-02T07:36:56;11.80;;;6.15;;
86116;SDS011;76770;0.000;0.000;2024-03-02T07:39:22;14.23;;;6.90;;
86116;SDS011;76770;0.000;0.000;2024-03-02T07:41:48;16.52;;;7.13;;
86116;SDS011;76770;0.000;0.000;2024-03-02T07:44:14;14.23;;;7.20;;
86116;SDS011;76770;0.000;0.000;2024-03-02T07:46:41;15.88;;;7.18;;
86116;SDS011;76770;0.000;0.000;2024-03-02T07:49:07;14.88;;;6.70;;
86116;SDS011;76770;0.000;0.000;2024-03-02T07:51:34;14.50;;;6.68;;
86116;SDS011;76770;0.000;0.000;2024-03-02T07:54:00;13.17;;;6.63;;
86116;SDS011;76770;0.000;0.000;2024-03-02T07:56:26;11.55;;;5.90;;
86116;SDS011;76770;0.000;0.000;2024-03-02T07:58:52;12.30;;;5.97;;
86116;SDS011;76770;0.000;0.000;2024-03-02T08:01:18;12.82;;;5.97;;
86116;SDS011;76770;0.000;0.000;2024-03-02T08:03:44;12.57;;;6.10;;
86116;SDS011;76770;0.000;0.000;2024-03-02T08:06:15;12.13;;;6.00;;
86116;SDS011;76770;0.000;0.000;2024-03-02T08:08:41;12.00;;;6.07;;
86116;SDS011;76770;0.000;0.000;2024-03-02T08:11:07;11.82;;;6.15;;
86116;SDS011;76770;0.000;0.000;2024-03-02T08:13:34;12.18;;;6.07;;
86116;SDS011;76770;0.000;0.000;2024-03-02T08:16:00;11.00;;;5.70;;
86116;SDS011;76770;0.000;0.000;2024-03-02T08:18:28;11.68;;;5.80;;
86116;SDS011;76770;0.000;0.000;2024-03-02T08:20:54;12.37;;;6.00;;
86116;SDS011;76770;0.000;0.000;2024-03-02T08:23:20;10.10;;;5.45;;
86116;SDS011;76770;0.000;0.000;2024-03-02T08:25:46;10.77;;;5.65;;
86116;SDS011;76770;0.000;0.000;2024-03-02T08:28:12;11.68;;;5.40;;
86116;SDS011;76770;0.000;0.000;2024-03-02T08:30:38;10.18;;;5.38;;
86116;SDS011;76770;0.000;0.000;2024-03-02T08:33:04;9.93;;;5.22;;
86116;SDS011;76770;0.000;0.000;2024-03-02T08:35:31;7.93;;;4.20;;
86116;SDS011;76770;0.000;0.000;2024-03-02T08:38:01;7.50;;;3.85;;
86116;SDS011;76770;0.000;0.000;2024-03-02T08:40:28;8.37;;;4.00;;
86116;SDS011;76770;0.000;0.000;2024-03-02T08:42:54;8.03;;;4.10;;
86116;SDS011;76770;0.000;0.000;2024-03-02T08:45:20;7.68;;;3.70;;
86116;SDS011;76770;0.000;0.000;2024-03-02T08:47:46;7.45;;;3.67;;
86116;SDS011;76770;0.000;0.000;2024-03-02T08:50:13;6.07;;;3.40;;
86116;SDS011;76770;0.000;0.000;2024-03-02T08:52:39;7.15;;;3.60;;
86116;SDS011;76770;0.000;0.000;2024-03-02T08:55:05;6.55;;;3.83;;
86116;SDS011;76770;0.000;0.000;2024-03-02T08:57:32;6.97;;;3.83;;
86116;SDS011;76770;0.000;0.000;2024-03-02T08:59:58;7.93;;;3.83;;
86116;SDS011;76770;0.000;0.000;2024-03-02T09:02:24;6.57;;;3.87;;
86116;SDS011;76770;0.000;0.000;2024-03-02T09:04:50;7.53;;;4.20;;
86116;SDS011;76770;0.000;0.000;2024-03-02T09:07:16;7.07;;;3.90;;
86116;SDS011;76770;0.000;0.000;2024-03-02T09:09:42;9.82;;;5.13;;
86116;SDS011;76770;0.000;0.000;2024-03-02T09:12:09;9.00;;;5.00;;
86116;SDS011;76770;0.000;0.000;2024-03-02T09:14:36;7.60;;;4.28;;
86116;SDS011;76770;0.000;0.000;2024-03-02T09:17:02;7.50;;;3.80;;
86116;SDS011;76770;0.000;0.000;2024-03-02T09:19:28;6.47;;;3.70;;
86116;SDS011;76770;0.000;0.000;2024-03-02T09:21:55;8.02;;;4.22;;
86116;SDS011;76770;0.000;0.000;2024-03-02T09:24:23;9.10;;;4.45;;
86116;SDS011;76770;0.000;0.000;2024-03-02T09:26:51;7.38;;;4.18;;
86116;SDS011;76770;0.000;0.000;2024-03-02T09:29:17;7.85;;;4.10;;
86116;SDS011;76770;0.000;0.000;2024-03-02T09:31:45;7.68;;;4.10;;
86116;SDS011;76770;0.000;0.000;2024-03-02T09:34:12;8.82;;;3.90;;
86116;SDS011;76770;0.000;0.000;2024-03-02T09:36:39;8.45;;;3.80;;
86116;SDS011;76770;0.000;0.000;2024-03-02T09:39:07;8.95;;;3.88;;
86116;SDS011;76770;0.000;0.000;2024-03-02T09:41:34;7.40;;;3.60;;
86116;SDS011;76770;0.000;0.000;2024-03-02T09:44:01;7.03;;;3.63;;
86116;SDS011;76770;0.000;0.000;2024-03-02T09:46:27;8.20;;;3.75;;
86116;SDS011;76770;0.000;0.000;2024-03-02T09:48:53;7.43;;;3.90;;
86116;SDS011;76770;0.000;0.000;2024-03-02T09:51:19;8.15;;;3.63;;
86116;SDS011;76770;0.000;0.000;2024-03-02T09:53:45;6.60;;;3.80;;
86116;SDS011;76770;0.000;0.000;2024-03-02T09:56:13;6.97;;;3.70;;
86116;SDS011;76770;0.000;0.000;2024-03-02T09:58:41;5.95;;;3.42;;
86116;SDS011;76770;0.000;0.000;2024-03-02T10:01:07;6.28;;;3.38;;
86116;SDS011;76770;0.000;0.000;2024-03-02T10:03:35;7.40;;;3.90;;
86116;SDS011;76770;0.000;0.000;2024-03-02T10:06:18;6.18;;;3.33;;
86116;SDS011;76770;0.000;0.000;2024-03-02T10:08:45;6.70;;;3.37;;
86116;SDS011;76770;0.000;0.000;2024-03-02T10:11:11;5.65;;;3.20;;
86116;SDS011;76770;0.000;0.000;2024-03-02T10:13:56;5.93;;;3.22;;
86116;SDS011;76770;0.000;0.000;2024-03-02T10:16:29;6.22;;;3.40;;
86116;SDS011;76770;0.000;0.000;2024-03-02T10:18:55;4.85;;;2.95;;
86116;SDS011;76770;0.000;0.000;2024-03-02T10:21:21;6.65;;;3.00;;
86116;SDS011;76770;0.000;0.000;2024-03-02T10:23:49;4.93;;;3.10;;
86116;SDS011;76770;0.000;0.000;2024-03-02T10:26:18;8.48;;;4.97;;
86116;SDS011;76770;0.000;0.000;2024-03-02T10:28:47;9.52;;;5.28;;
86116;SDS011;76770;0.000;0.000;2024-03-02T10:31:13;9.82;;;5.82;;
86116;SDS011;76770;0.000;0.000;2024-03-02T10:33:39;11.38;;;6.38;;
86116;SDS011;76770;0.000;0.000;2024-03-02T10:36:06;10.98;;;6.88;;
86116;SDS011;76770;0.000;0.000;2024-03-02T10:38:32;12.80;;;7.20;;
86116;SDS011;76770;0.000;0.000;2024-03-02T10:40:59;12.85;;;6.95;;
86116;SDS011;76770;0.000;0.000;2024-03-02T10:43:25;11.50;;;7.10;;
86116;SDS011;76770;0.000;0.000;2024-03-02T10:45:51;11.45;;;6.90;;
86116;SDS011;76770;0.000;0.000;2024-03-02T10:48:18;13.55;;;7.15;;
86116;SDS011;76770;0.000;0.000;2024-03-02T10:50:46;11.85;;;6.88;;
86116;SDS011;76770;0.000;0.000;2024-03-02T10:53:12;13.20;;;7.82;;
86116;SDS011;76770;0.000;0.000;2024-03-02T10:55:38;14.05;;;7.50;;
86116;SDS011;76770;0.000;0.000;2024-03-02T10:58:04;10.87;;;7.47;;
86116;SDS011;76770;0.000;0.000;2024-03-02T11:00:33;12.85;;;7.57;;
86116;SDS011;76770;0.000;0.000;2024-03-02T11:03:06;17.05;;;8.23;;
86116;SDS011;76770;0.000;0.000;2024-03-02T11:05:35;12.18;;;7.50;;
86116;SDS011;76770;0.000;0.000;2024-03-02T11:08:02;14.90;;;7.55;;
86116;SDS011;76770;0.000;0.000;2024-03-02T11:10:35;12.57;;;7.53;;
86116;SDS011;76770;0.000;0.000;2024-03-02T11:13:04;16.15;;;7.70;;
86116;SDS011;76770;0.000;0.000;2024-03-02T11:15:31;14.90;;;7.90;;
86116;SDS011;76770;0.000;0.000;2024-03-02T11:17:57;15.88;;;8.00;;
86116;SDS011;76770;0.000;0.000;2024-03-02T11:20:23;14.00;;;8.00;;
86116;SDS011;76770;0.000;0.000;2024-03-02T11:22:50;13.33;;;8.03;;
86116;SDS011;76770;0.000;0.000;2024-03-02T11:25:23;12.63;;;7.40;;
86116;SDS011;76770;0.000;0.000;2024-03-02T11:33:06;13.07;;;7.68;;
86116;SDS011;76770;0.000;0.000;2024-03-02T11:35:36;13.50;;;7.75;;
86116;SDS011;76770;0.000;0.000;2024-03-02T11:38:05;13.65;;;7.88;;
86116;SDS011;76770;0.000;0.000;2024-03-02T11:40:32;12.15;;;7.32;;
86116;SDS011;76770;0.000;0.000;2024-03-02T11:43:01;12.30;;;7.35;;
86116;SDS011;76770;0.000;0.000;2024-03-02T11:45:27;12.63;;;7.43;;
86116;SDS011;76770;0.000;0.000;2024-03-02T11:47:54;12.77;;;7.05;;
86116;SDS011;76770;0.000;0.000;2024-03-02T11:50:30;11.13;;;6.80;;
86116;SDS011;76770;0.000;0.000;2024-03-02T11:52:57;14.02;;;7.38;;
86116;SDS011;76770;0.000;0.000;2024-03-02T11:55:25;13.00;;;7.20;;
86116;SDS011;76770;0.000;0.000;2024-03-02T11:57:54;12.50;;;6.90;;
86116;SDS011;76770;0.000;0.000;2024-03-02T12:00:20;13.25;;;7.35;;
86116;SDS011;76770;0.000;0.000;2024-03-02T12:02:47;11.88;;;6.72;;
86116;SDS011;76770;0.000;0.000;2024-03-02T12:05:22;13.35;;;7.38;;
86116;SDS011;76770;0.000;0.000;2024-03-02T12:07:48;12.65;;;7.25;;
86116;SDS011;76770;0.000;0.000;2024-03-02T12:10:14;12.73;;;6.90;;
86116;SDS011;76770;0.000;0.000;2024-03-02T12:12:40;12.05;;;6.70;;
86116;SDS011;76770;0.000;0.000;2024-03-02T12:15:06;10.98;;;6.80;;
86116;SDS011;76770;0.000;0.000;2024-03-02T12:17:32;10.60;;;6.53;;
86116;SDS011;76770;0.000;0.000;2024-03-02T12:19:58;11.18;;;6.50;;
86116;SDS011;76770;0.000;0.000;2024-03-02T12:22:28;11.55;;;6.32;;
86116;SDS011;76770;0.000;0.000;2024-03-02T12:24:54;13.07;;;6.55;;
86116;SDS011;76770;0.000;0.000;2024-03-02T12:27:20;10.35;;;6.38;;
86116;SDS011;76770;0.000;0.000;2024-03-02T12:29:47;11.23;;;6.43;;
86116;SDS011;76770;0.000;0.000;2024-03-02T12:32:13;10.13;;;6.17;;
86116;SDS011;76770;0.000;0.000;2024-03-02T12:34:40;9.63;;;6.10;;
86116;SDS011;76770;0.000;0.000;2024-03-02T12:37:06;11.50;;;6.40;;
86116;SDS011;76770;0.000;0.000;2024-03-02T12:39:32;9.75;;;5.93;;
86116;SDS011;76770;0.000;0.000;2024-03-02T12:41:58;9.73;;;5.80;;
86116;SDS011;76770;0.000;0.000;2024-03-02T12:44:24;8.98;;;5.70;;
86116;SDS011;76770;0.000;0.000;2024-03-02T12:46:50;10.10;;;5.82;;
86116;SDS011;76770;0.000;0.000;2024-03-02T12:49:21;10.40;;;5.85;;
86116;SDS011;76770;0.000;0.000;2024-03-02T12:51:47;9.68;;;5.85;;
86116;SDS011;76770;0.000;0.000;2024-03-02T12:54:17;8.55;;;5.80;;
86116;SDS011;76770;0.000;0.000;2024-03-02T12:56:43;8.05;;;5.35;;
86116;SDS011;76770;0.000;0.000;2024-03-02T12:59:20;8.95;;;5.38;;
86116;SDS011;76770;0.000;0.000;2024-03-02T13:01:53;9.20;;;5.55;;
86116;SDS011;76770;0.000;0.000;2024-03-02T13:04:26;9.53;;;5.50;;
86116;SDS011;76770;0.000;0.000;2024-03-02T13:06:53;8.05;;;5.60;;
86116;SDS011;76770;0.000;0.000;2024-03-02T13:09:21;7.47;;;5.00;;
86116;SDS011;76770;0.000;0.000;2024-03-02T13:11:48;8.63;;;5.30;;
86116;SDS011;76770;0.000;0.000;2024-03-02T13:14:14;7.80;;;4.90;;
86116;SDS011;76770;0.000;0.000;2024-03-02T13:16:40;9.07;;;5.38;;
86116;SDS011;76770;0.000;0.000;2024-03-02T13:19:07;7.72;;;4.95;;
86116;SDS011;76770;0.000;0.000;2024-03-02T13:21:33;8.27;;;5.05;;
86116;SDS011;76770;0.000;0.000;2024-03-02T13:23:59;7.93;;;5.00;;
86116;SDS011;76770;0.000;0.000;2024-03-02T13:26:26;8.45;;;5.18;;
86116;SDS011;76770;0.000;0.000;2024-03-02T13:28:52;9.20;;;5.43;;
86116;SDS011;76770;0.000;0.000;2024-03-02T13:31:18;8.52;;;5.30;;
86116;SDS011;76770;0.000;0.000;2024-03-02T13:33:44;8.63;;;5.10;;
86116;SDS011;76770;0.000;0.000;2024-03-02T13:36:11;8.23;;;5.03;;
86116;SDS011;76770;0.000;0.000;2024-03-02T13:38:37;7.40;;;4.70;;
86116;SDS011;76770;0.000;0.000;2024-03-02T13:41:03;7.63;;;4.90;;
86116;SDS011;76770;0.000;0.000;2024-03-02T13:43:29;8.32;;;5.00;;
86116;SDS011;76770;0.000;0.000;2024-03-02T13:45:58;8.40;;;4.97;;
86116;SDS011;76770;0.000;0.000;2024-03-02T13:48:24;8.83;;;5.23;;
86116;SDS011;76770;0.000;0.000;2024-03-02T13:50:53;7.97;;;5.50;;
86116;SDS011;76770;0.000;0.000;2024-03-02T13:53:20;8.23;;;5.05;;
86116;SDS011;76770;0.000;0.000;2024-03-02T13:55:46;8.38;;;4.95;;
86116;SDS011;76770;0.000;0.000;2024-03-02T13:58:12;7.97;;;4.85;;
86116;SDS011;76770;0.000;0.000;2024-03-02T14:00:38;6.93;;;4.82;;
86116;SDS011;76770;0.000;0.000;2024-03-02T14:03:07;6.65;;;4.55;;
86116;SDS011;76770;0.000;0.000;2024-03-02T14:05:34;7.07;;;4.60;;
86116;SDS011;76770;0.000;0.000;2024-03-02T14:08:00;7.15;;;4.65;;
86116;SDS011;76770;0.000;0.000;2024-03-02T14:10:26;7.00;;;4.68;;
86116;SDS011;76770;0.000;0.000;2024-03-02T14:12:52;7.18;;;4.32;;
86116;SDS011;76770;0.000;0.000;2024-03-02T14:15:20;7.13;;;4.30;;
86116;SDS011;76770;0.000;0.000;2024-03-02T14:17:46;7.47;;;4.38;;
86116;SDS011;76770;0.000;0.000;2024-03-02T14:20:12;6.63;;;4.40;;
86116;SDS011;76770;0.000;0.000;2024-03-02T14:22:38;6.78;;;4.45;;
86116;SDS011;76770;0.000;0.000;2024-03-02T14:25:05;5.85;;;4.00;;
86116;SDS011;76770;0.000;0.000;2024-03-02T14:27:31;7.30;;;4.20;;
86116;SDS011;76770;0.000;0.000;2024-03-02T14:29:57;5.60;;;4.07;;
86116;SDS011;76770;0.000;0.000;2024-03-02T14:32:23;6.00;;;4.13;;
86116;SDS011;76770;0.000;0.000;2024-03-02T14:34:49;5.90;;;3.80;;
86116;SDS011;76770;0.000;0.000;2024-03-02T14:37:15;6.13;;;3.92;;
86116;SDS011;76770;0.000;0.000;2024-03-02T14:39:41;6.80;;;4.00;;
86116;SDS011;76770;0.000;0.000;2024-03-02T14:42:07;6.00;;;3.80;;
86116;SDS011;76770;0.000;0.000;2024-03-02T14:44:33;6.50;;;3.65;;
86116;SDS011;76770;0.000;0.000;2024-03-02T14:47:02;6.60;;;3.95;;
86116;SDS011;76770;0.000;0.000;2024-03-02T14:49:32;5.63;;;3.73;;
86116;SDS011;76770;0.000;0.000;2024-03-02T14:52:01;6.83;;;4.17;;
86116;SDS011;76770;0.000;0.000;2024-03-02T14:54:27;5.15;;;3.60;;
86116;SDS011;76770;0.000;0.000;2024-03-02T14:56:54;5.90;;;3.50;;
86116;SDS011;76770;0.000;0.000;2024-03-02T14:59:21;5.25;;;3.50;;
86116;SDS011;76770;0.000;0.000;2024-03-02T15:01:47;4.57;;;3.30;;
86116;SDS011;76770;0.000;0.000;2024-03-02T15:04:14;6.15;;;3.75;;